Observation data for Dora on 04/24/2019      Previous  Date  Next       Current Mesonet Observations  Soil Data  Daily Summary Page  Observations in Plain Language
KDR1 240500Z 03005KT 07/07 A3008 RMK A01 T00740068  RH  098%=      5-min Rain = 0
KDR1 240505Z 04005KT 07/07 A3008 RMK A01 T00730067  RH  098%=      5-min Rain = 0
KDR1 240510Z 04005KT 07/06 A3007 RMK A01 T00710064  RH  098%=      5-min Rain = 0
KDR1 240515Z 02006KT 07/06 A3007 RMK A01 T00710064  RH  098%=      5-min Rain = 0
KDR1 240520Z 03005KT 07/06 A3007 RMK A01 T00700064  RH  098%=      5-min Rain = 0
KDR1 240525Z 06005KT 07/06 A3007 RMK A01 T00700064  RH  098%=      5-min Rain = 0
KDR1 240530Z 06005KT 07/06 A3007 RMK A01 T00700064  RH  098%=      5-min Rain = 0
KDR1 240535Z 06005KT 07/06 A3007 RMK A01 T00700064  RH  099%=      5-min Rain = 0
KDR1 240540Z 07003KT 07/06 A3007 RMK A01 T00670061  RH  099%=      5-min Rain = 0
KDR1 240545Z 06004KT 07/06 A3007 RMK A01 T00690063  RH  099%=      5-min Rain = 0
KDR1 240550Z 07005KT 07/06 A3007 RMK A01 T00700064  RH  099%=      5-min Rain = 0
KDR1 240555Z 08004KT 07/06 A3007 RMK A01 T00670062  RH  099%=      5-min Rain = 0
KDR1 240600Z 06005KT 07/06 A3007 RMK A01 T00650060  RH  099%=      5-min Rain = 0
KDR1 240605Z 05005KT 07/06 A3007 RMK A01 T00660060  RH  099%=      5-min Rain = 0
KDR1 240610Z 04006KT 07/06 A3007 RMK A01 T00660061  RH  099%=      5-min Rain = 0
KDR1 240615Z 04007KT 07/06 A3006 RMK A01 T00650060  RH  099%=      5-min Rain = 0
KDR1 240620Z 04007KT 07/06 A3006 RMK A01 T00660061  RH  099%=      5-min Rain = 0
KDR1 240625Z 04006KT 07/06 A3006 RMK A01 T00660061  RH  099%=      5-min Rain = 0
KDR1 240630Z 04005KT 07/06 A3006 RMK A01 T00650060  RH  099%=      5-min Rain = 0
KDR1 240635Z 03005KT 06/06 A3006 RMK A01 T00630059  RH  099%=      5-min Rain = 0
KDR1 240640Z 03005KT 06/06 A3005 RMK A01 T00600055  RH  099%=      5-min Rain = 0
KDR1 240645Z 03005KT 06/06 A3005 RMK A01 T00590055  RH  099%=      5-min Rain = 0
KDR1 240650Z 03004KT 06/05 A3005 RMK A01 T00550051  RH  099%=      5-min Rain = 0
KDR1 240655Z 02004KT 06/05 A3005 RMK A01 T00550051  RH  099%=      5-min Rain = 0
KDR1 240700Z 01004KT 05/05 A3004 RMK A01 T00540051  RH  100%=      5-min Rain = 0
KDR1 240705Z 35004KT 05/05 A3004 RMK A01 T00540050  RH  100%=      5-min Rain = 0
KDR1 240710Z 35004KT 06/05 A3003 RMK A01 T00550051  RH  100%=      5-min Rain = 0
KDR1 240715Z 35005KT 05/05 A3003 RMK A01 T00540051  RH  100%=      5-min Rain = 0
KDR1 240720Z 34006KT 05/05 A3003 RMK A01 T00530050  RH  100%=      5-min Rain = 0
KDR1 240725Z 34006KT 05/05 A3003 RMK A01 T00530050  RH  100%=      5-min Rain = 0
KDR1 240730Z 33006KT 05/05 A3003 RMK A01 T00520049  RH  100%=      5-min Rain = 0
KDR1 240735Z 35005KT 05/05 A3003 RMK A01 T00540051  RH  100%=      5-min Rain = 0
KDR1 240740Z 36003KT 06/05 A3003 RMK A01 T00550052  RH  100%=      5-min Rain = 0
KDR1 240745Z 00004KT 06/05 A3003 RMK A01 T00560053  RH  100%=      5-min Rain = 0
KDR1 240750Z 35004KT 06/05 A3002 RMK A01 T00570054  RH  100%=      5-min Rain = 0
KDR1 240755Z 35004KT 06/05 A3003 RMK A01 T00580054  RH  100%=      5-min Rain = 0
KDR1 240800Z 35003KT 06/06 A3002 RMK A01 T00580055  RH  100%=      5-min Rain = 0
KDR1 240805Z 32003KT 06/05 A3003 RMK A01 T00570054  RH  100%=      5-min Rain = 0
KDR1 240810Z 28003KT 06/05 A3003 RMK A01 T00560053  RH  100%=      5-min Rain = 0
KDR1 240815Z 23003KT 06/05 A3003 RMK A01 T00570054  RH  100%=      5-min Rain = 0
KDR1 240820Z 21003KT 06/06 A3004 RMK A01 T00580055  RH  100%=      5-min Rain = 0
KDR1 240825Z 22003KT 06/05 A3004 RMK A01 T00560053  RH  100%=      5-min Rain = 0
KDR1 240830Z 24003KT 06/05 A3004 RMK A01 T00560052  RH  100%=      5-min Rain = 0
KDR1 240835Z 23004KT 05/05 A3004 RMK A01 T00540051  RH  100%=      5-min Rain = 0
KDR1 240840Z 22005KT 05/05 A3004 RMK A01 T00540051  RH  100%=      5-min Rain = 0
KDR1 240845Z 21004KT 05/05 A3005 RMK A01 T00520049  RH  100%=      5-min Rain = 0
KDR1 240850Z 20003KT 05/05 A3005 RMK A01 T00520049  RH  100%=      5-min Rain = 0
KDR1 240855Z 21003KT 05/05 A3005 RMK A01 T00500047  RH  100%=      5-min Rain = 0
KDR1 240900Z 24003KT 05/05 A3004 RMK A01 T00490046  RH  100%=      5-min Rain = 0
KDR1 240905Z 24004KT 05/05 A3004 RMK A01 T00490046  RH  100%=      5-min Rain = 0
KDR1 240910Z 25005KT 05/05 A3004 RMK A01 T00480045  RH  100%=      5-min Rain = 0
KDR1 240915Z 25005KT 05/05 A3003 RMK A01 T00480045  RH  100%=      5-min Rain = 0
KDR1 240920Z 26005KT 05/04 A3003 RMK A01 T00470044  RH  100%=      5-min Rain = 0
KDR1 240925Z 26005KT 05/04 A3003 RMK A01 T00470044  RH  100%=      5-min Rain = 0
KDR1 240930Z 26004KT 05/04 A3003 RMK A01 T00460043  RH  100%=      5-min Rain = 0
KDR1 240935Z 25005KT 04/04 A3003 RMK A01 T00430040  RH  100%=      5-min Rain = 0
KDR1 240940Z 26005KT 04/04 A3003 RMK A01 T00430040  RH  100%=      5-min Rain = 0
KDR1 240945Z 26005KT 04/04 A3003 RMK A01 T00430041  RH  100%=      5-min Rain = 0
KDR1 240950Z 25005KT 05/04 A3003 RMK A01 T00450042  RH  100%=      5-min Rain = 0
KDR1 240955Z 24004KT 04/04 A3003 RMK A01 T00430040  RH  100%=      5-min Rain = 0
KDR1 241000Z 24004KT 04/04 A3002 RMK A01 T00410038  RH  100%=      5-min Rain = 0
KDR1 241005Z 23003KT 04/04 A3003 RMK A01 T00390036  RH  100%=      5-min Rain = 0
KDR1 241010Z 23004KT 04/04 A3003 RMK A01 T00390036  RH  100%=      5-min Rain = 0
KDR1 241015Z 23004KT 04/04 A3003 RMK A01 T00380035  RH  100%=      5-min Rain = 0
KDR1 241020Z 23004KT 04/04 A3003 RMK A01 T00380036  RH  100%=      5-min Rain = 0
KDR1 241025Z 23005KT 04/04 A3003 RMK A01 T00380036  RH  100%=      5-min Rain = 0
KDR1 241030Z 24005KT 04/04 A3003 RMK A01 T00380036  RH  100%=      5-min Rain = 0
KDR1 241035Z 23005KT 04/04 A3003 RMK A01 T00390036  RH  100%=      5-min Rain = 0
KDR1 241040Z 22005KT 04/04 A3004 RMK A01 T00390036  RH  100%=      5-min Rain = 0.01
KDR1 241045Z 22005KT 04/04 A3004 RMK A01 T00390036  RH  100%=      5-min Rain = 0
KDR1 241050Z 22005KT 04/04 A3004 RMK A01 T00390037  RH  100%=      5-min Rain = 0
KDR1 241055Z 22004KT 04/04 A3003 RMK A01 T00440041  RH  100%=      5-min Rain = 0
KDR1 241100Z 22004KT 04/04 A3003 RMK A01 T00440042  RH  100%=      5-min Rain = 0
KDR1 241105Z 22003KT 05/04 A3002 RMK A01 T00470044  RH  100%=      5-min Rain = 0
KDR1 241110Z 23002KT 05/05 A3002 RMK A01 T00490046  RH  100%=      5-min Rain = 0
KDR1 241115Z 22003KT 05/05 A3002 RMK A01 T00510048  RH  100%=      5-min Rain = 0
KDR1 241120Z 22003KT 05/05 A3002 RMK A01 T00510048  RH  100%=      5-min Rain = 0
KDR1 241125Z 22003KT 05/05 A3002 RMK A01 T00490046  RH  100%=      5-min Rain = 0
KDR1 241130Z 22002KT 05/05 A3001 RMK A01 T00480045  RH  100%=      5-min Rain = 0
KDR1 241135Z 22002KT 05/05 A3001 RMK A01 T00490046  RH  100%=      5-min Rain = 0
KDR1 241140Z 23001KT 05/04 A3001 RMK A01 T00470044  RH  100%=      5-min Rain = 0
KDR1 241145Z 27002KT 04/04 A30 RMK A01 T00440041  RH  100%=      5-min Rain = 0
KDR1 241150Z 28002KT 05/04 A30 RMK A01 T00450042  RH  100%=      5-min Rain = 0
KDR1 241155Z 29005KT 04/04 A30 RMK A01 T00430040  RH  100%=      5-min Rain = 0
KDR1 241200Z 29006KT 04/04 A30 RMK A01 T00430040  RH  100%=      5-min Rain = 0
KDR1 241205Z 28004KT 04/04 A3001 RMK A01 T00430040  RH  100%=      5-min Rain = 0
KDR1 241210Z 25003KT 04/04 A3001 RMK A01 T00380036  RH  100%=      5-min Rain = 0
KDR1 241215Z 26004KT 04/03 A3001 RMK A01 T00350032  RH  100%=      5-min Rain = 0
KDR1 241220Z 25005KT 03/03 A3001 RMK A01 T00310029  RH  100%=      5-min Rain = 0
KDR1 241225Z 25005KT 03/03 A3001 RMK A01 T00320030  RH  100%=      5-min Rain = 0
KDR1 241230Z 25005KT 03/03 A3001 RMK A01 T00340032  RH  100%=      5-min Rain = 0
KDR1 241235Z 23005KT 03/03 A3002 RMK A01 T00340032  RH  100%=      5-min Rain = 0
KDR1 241240Z 22006KT 04/04 A3002 RMK A01 T00370035  RH  100%=      5-min Rain = 0
KDR1 241245Z 21005KT 04/04 A3002 RMK A01 T00400037  RH  100%=      5-min Rain = 0
KDR1 241250Z 23005KT 04/04 A3002 RMK A01 T00420039  RH  100%=      5-min Rain = 0
KDR1 241255Z 24005KT 04/04 A3002 RMK A01 T00440041  RH  100%=      5-min Rain = 0
KDR1 241300Z 24006KT 05/04 A3002 RMK A01 T00460043  RH  100%=      5-min Rain = 0
KDR1 241305Z 25007KT 05/05 A3002 RMK A01 T00510048  RH  100%=      5-min Rain = 0
KDR1 241310Z 24006KT 05/05 A3002 RMK A01 T00530050  RH  100%=      5-min Rain = 0
KDR1 241315Z 23006KT 05/05 A3003 RMK A01 T00520049  RH  100%=      5-min Rain = 0
KDR1 241320Z 23006KT 06/05 A3003 RMK A01 T00560053  RH  100%=      5-min Rain = 0
KDR1 241325Z 22005KT 06/06 A3004 RMK A01 T00610058  RH  100%=      5-min Rain = 0
KDR1 241330Z 22006KT 07/07 A3004 RMK A01 T00690065  RH  100%=      5-min Rain = 0
KDR1 241335Z 22007KT 07/07 A3004 RMK A01 T00740070  RH  100%=      5-min Rain = 0
KDR1 241340Z 22007KT 08/07 A3004 RMK A01 T00770073  RH  100%=      5-min Rain = 0
KDR1 241345Z 23006KT 08/08 A3004 RMK A01 T00800076  RH  100%=      5-min Rain = 0
KDR1 241350Z 23006KT 08/08 A3004 RMK A01 T00830079  RH  100%=      5-min Rain = 0
KDR1 241355Z 22006KT 08/08 A3004 RMK A01 T00830079  RH  100%=      5-min Rain = 0
KDR1 241400Z 23007KT 08/08 A3004 RMK A01 T00840080  RH  100%=      5-min Rain = 0
KDR1 241405Z 23006KT 09/08 A3004 RMK A01 T00860082  RH  100%=      5-min Rain = 0
KDR1 241410Z 24006KT 09/09 A3004 RMK A01 T00900086  RH  100%=      5-min Rain = 0
KDR1 241415Z 23006KT 09/09 A3004 RMK A01 T00910087  RH  100%=      5-min Rain = 0
KDR1 241420Z 23006KT 10/09 A3004 RMK A01 T00950090  RH  100%=      5-min Rain = 0
KDR1 241425Z 24005KT 10/09 A3004 RMK A01 T00980093  RH  100%=      5-min Rain = 0
KDR1 241430Z 25004KT 10/10 A3004 RMK A01 T01010096  RH  100%=      5-min Rain = 0
KDR1 241435Z 25004KT 10/10 A3003 RMK A01 T01030098  RH  100%=      5-min Rain = 0
KDR1 241440Z 26004KT 11/10 A3003 RMK A01 T01050101  RH  100%=      5-min Rain = 0
KDR1 241445Z 28005KT 11/10 A3002 RMK A01 T01080103  RH  100%=      5-min Rain = 0
KDR1 241450Z 27005KT 11/10 A3002 RMK A01 T01080103  RH  100%=      5-min Rain = 0
KDR1 241455Z 28006KT 11/11 A3001 RMK A01 T01130107  RH  100%=      5-min Rain = 0
KDR1 241500Z 28007KT 12/11 A3001 RMK A01 T01170112  RH  100%=      5-min Rain = 0
KDR1 241505Z 28006KT 12/12 A3001 RMK A01 T01210115  RH  100%=      5-min Rain = 0
KDR1 241510Z 30007KT 12/12 A3001 RMK A01 T01240119  RH  100%=      5-min Rain = 0
KDR1 241515Z 28008KT 13/12 A3001 RMK A01 T01270121  RH  100%=      5-min Rain = 0
KDR1 241520Z 28007KT 13/12 A3001 RMK A01 T01290123  RH  100%=      5-min Rain = 0
KDR1 241525Z 30009KT 13/13 A3001 RMK A01 T01310125  RH  100%=      5-min Rain = 0
KDR1 241530Z 30008KT 13/13 A3001 RMK A01 T01310125  RH  100%=      5-min Rain = 0
KDR1 241535Z 30008KT 13/13 A3002 RMK A01 T01330127  RH  100%=      5-min Rain = 0
KDR1 241540Z 31009KT 13/13 A3001 RMK A01 T01330127  RH  100%=      5-min Rain = 0
KDR1 241545Z 29008KT 14/13 A3002 RMK A01 T01350129  RH  100%=      5-min Rain = 0
KDR1 241550Z 28007KT 14/13 A3002 RMK A01 T01370131  RH  100%=      5-min Rain = 0
KDR1 241555Z 29009KT 14/13 A3002 RMK A01 T01370131  RH  100%=      5-min Rain = 0
KDR1 241600Z 29007KT 13/13 A3002 RMK A01 T01340128  RH  100%=      5-min Rain = 0
KDR1 241605Z 29008G13KT 14/13 A3002 RMK A01 T01380132  RH  100%=      5-min Rain = 0
KDR1 241610Z 28006G12KT 14/14 A3002 RMK A01 T01420136  RH  100%=      5-min Rain = 0
KDR1 241615Z 29008KT 14/13 A3003 RMK A01 T01380132  RH  100%=      5-min Rain = 0
KDR1 241620Z 30004KT 14/13 A3003 RMK A01 T01400134  RH  100%=      5-min Rain = 0
KDR1 241625Z 32005KT 14/14 A3003 RMK A01 T01430137  RH  100%=      5-min Rain = 0
KDR1 241630Z 30006KT 14/14 A3002 RMK A01 T01440137  RH  100%=      5-min Rain = 0
KDR1 241635Z 29004KT 14/14 A3002 RMK A01 T01440138  RH  100%=      5-min Rain = 0
KDR1 241640Z 33004KT 15/14 A3002 RMK A01 T01490143  RH  100%=      5-min Rain = 0
KDR1 241645Z 32006KT 15/15 A3002 RMK A01 T01520146  RH  100%=      5-min Rain = 0
KDR1 241650Z 30007KT 15/14 A3003 RMK A01 T01510144  RH  100%=      5-min Rain = 0
KDR1 241655Z 31004KT 15/14 A3002 RMK A01 T01510144  RH  100%=      5-min Rain = 0
KDR1 241700Z 34003G8KT 15/15 A3003 RMK A01 T01520145  RH  100%=      5-min Rain = 0
KDR1 241705Z 05002KT 16/16 A3003 RMK A01 T01620155  RH  100%=      5-min Rain = 0
KDR1 241710Z 30003G8KT 17/16 A3003 RMK A01 T01680161  RH  100%=      5-min Rain = 0
KDR1 241715Z 31006KT 16/15 A3002 RMK A01 T01570150  RH  100%=      5-min Rain = 0
KDR1 241720Z 32003KT 16/15 A3002 RMK A01 T01560149  RH  100%=      5-min Rain = 0
KDR1 241725Z 33001KT 17/16 A3002 RMK A01 T01650158  RH  100%=      5-min Rain = 0
KDR1 241730Z 03003KT 16/16 A3002 RMK A01 T01640157  RH  100%=      5-min Rain = 0
KDR1 241735Z 31003KT 17/16 A3002 RMK A01 T01660158  RH  100%=      5-min Rain = 0
KDR1 241740Z 28003KT 16/16 A3002 RMK A01 T01640156  RH  100%=      5-min Rain = 0
KDR1 241745Z 31004KT 16/15 A3002 RMK A01 T01600153  RH  100%=      5-min Rain = 0
KDR1 241750Z 25004KT 16/15 A3001 RMK A01 T01590152  RH  100%=      5-min Rain = 0
KDR1 241755Z 26004KT 16/15 A3001 RMK A01 T01580151  RH  100%=      5-min Rain = 0
KDR1 241800Z 26002KT 17/16 A3001 RMK A01 T01660158  RH  100%=      5-min Rain = 0
KDR1 241805Z 21002KT 17/15 A3001 RMK A01 T01720154  RH  093%=      5-min Rain = 0
KDR1 241810Z 27003KT 17/14 A30 RMK A01 T01680138  RH  086%=      5-min Rain = 0
KDR1 241815Z 29003KT 17/13 A30 RMK A01 T01650128  RH  082%=      5-min Rain = 0
KDR1 241820Z 30005KT 17/13 A30 RMK A01 T01670131  RH  082%=      5-min Rain = 0
KDR1 241825Z 29004KT 16/12 A30 RMK A01 T01620121  RH  080%=      5-min Rain = 0
KDR1 241830Z 24003KT 17/12 A30 RMK A01 T01690123  RH  077%=      5-min Rain = 0
KDR1 241835Z 08002KT 17/12 A2999 RMK A01 T01740120  RH  073%=      5-min Rain = 0
KDR1 241840Z 25003KT 18/12 A2999 RMK A01 T01750122  RH  074%=      5-min Rain = 0
KDR1 241845Z 23004KT 17/11 A2999 RMK A01 T01700114  RH  072%=      5-min Rain = 0
KDR1 241850Z 23003KT 17/11 A2999 RMK A01 T01670108  RH  071%=      5-min Rain = 0
KDR1 241855Z 29001KT 17/11 A2999 RMK A01 T01680107  RH  070%=      5-min Rain = 0
KDR1 241900Z 30002KT 18/12 A2999 RMK A01 T01770118  RH  071%=      5-min Rain = 0
KDR1 241905Z 24004KT 18/12 A2999 RMK A01 T01820119  RH  069%=      5-min Rain = 0
KDR1 241910Z 06002KT 18/11 A2999 RMK A01 T01790108  RH  065%=      5-min Rain = 0
KDR1 241915Z 25003KT 18/10 A2998 RMK A01 T01750103  RH  065%=      5-min Rain = 0
KDR1 241920Z 25006KT 17/10 A2998 RMK A01 T01720102  RH  065%=      5-min Rain = 0
KDR1 241925Z 29004G9KT 17/11 A2998 RMK A01 T01730106  RH  067%=      5-min Rain = 0
KDR1 241930Z 31005KT 17/10 A2998 RMK A01 T01700101  RH  066%=      5-min Rain = 0
KDR1 241935Z 06002KT 17/10 A2997 RMK A01 T01700099  RH  065%=      5-min Rain = 0
KDR1 241940Z 28006KT 18/11 A2997 RMK A01 T01780106  RH  065%=      5-min Rain = 0
KDR1 241945Z 31003KT 18/10 A2997 RMK A01 T01770100  RH  063%=      5-min Rain = 0
KDR1 241950Z 32004KT 18/11 A2997 RMK A01 T01830105  RH  062%=      5-min Rain = 0
KDR1 241955Z 29004KT 18/10 A2997 RMK A01 T01800101  RH  062%=      5-min Rain = 0
KDR1 242000Z 25003KT 18/10 A2997 RMK A01 T01800100  RH  062%=      5-min Rain = 0
KDR1 242005Z 29004KT 18/10 A2997 RMK A01 T01780098  RH  061%=      5-min Rain = 0
KDR1 242010Z 28004KT 18/10 A2997 RMK A01 T01800097  RH  060%=      5-min Rain = 0
KDR1 242015Z 28004KT 18/10 A2996 RMK A01 T01800095  RH  060%=      5-min Rain = 0
KDR1 242020Z 28007KT 19/11 A2996 RMK A01 T01910107  RH  060%=      5-min Rain = 0
KDR1 242025Z 27005KT 20/10 A2996 RMK A01 T01950103  RH  057%=      5-min Rain = 0
KDR1 242030Z 28003KT 20/10 A2996 RMK A01 T01950099  RH  056%=      5-min Rain = 0
KDR1 242035Z 30005KT 19/10 A2995 RMK A01 T01930097  RH  055%=      5-min Rain = 0
KDR1 242040Z 25004KT 19/09 A2995 RMK A01 T01850091  RH  056%=      5-min Rain = 0
KDR1 242045Z 26005KT 19/10 A2995 RMK A01 T01870095  RH  057%=      5-min Rain = 0
KDR1 242050Z 27005G10KT 19/10 A2995 RMK A01 T01930099  RH  056%=      5-min Rain = 0
KDR1 242055Z 30005G10KT 19/09 A2995 RMK A01 T01920092  RH  054%=      5-min Rain = 0
KDR1 242100Z 30006G11KT 19/09 A2995 RMK A01 T01890087  RH  053%=      5-min Rain = 0
KDR1 242105Z 27007G12KT 20/09 A2994 RMK A01 T01950091  RH  053%=      5-min Rain = 0
KDR1 242110Z 26004KT 19/08 A2994 RMK A01 T01900084  RH  052%=      5-min Rain = 0
KDR1 242115Z 27006KT 19/09 A2994 RMK A01 T01930091  RH  053%=      5-min Rain = 0
KDR1 242120Z 26005KT 20/09 A2994 RMK A01 T01970091  RH  052%=      5-min Rain = 0
KDR1 242125Z 30005G10KT 19/09 A2994 RMK A01 T01940090  RH  053%=      5-min Rain = 0
KDR1 242130Z 29007KT 20/09 A2993 RMK A01 T01960086  RH  051%=      5-min Rain = 0
KDR1 242135Z 28008KT 19/08 A2993 RMK A01 T01910084  RH  051%=      5-min Rain = 0
KDR1 242140Z 31007KT 19/09 A2993 RMK A01 T01930086  RH  051%=      5-min Rain = 0
KDR1 242145Z 30008G13KT 20/09 A2993 RMK A01 T02000091  RH  051%=      5-min Rain = 0
KDR1 242150Z 30005KT 20/09 A2993 RMK A01 T02040091  RH  050%=      5-min Rain = 0
KDR1 242155Z 25006KT 21/09 A2993 RMK A01 T02070091  RH  049%=      5-min Rain = 0
KDR1 242200Z 24006G11KT 21/09 A2992 RMK A01 T02070089  RH  048%=      5-min Rain = 0
KDR1 242205Z 22004KT 20/09 A2992 RMK A01 T02010085  RH  048%=      5-min Rain = 0
KDR1 242210Z 22004KT 20/08 A2992 RMK A01 T02010081  RH  047%=      5-min Rain = 0
KDR1 242215Z 29006G11KT 21/09 A2992 RMK A01 T02080086  RH  047%=      5-min Rain = 0
KDR1 242220Z 30008G13KT 20/08 A2992 RMK A01 T02040079  RH  046%=      5-min Rain = 0
KDR1 242225Z 29005KT 20/08 A2992 RMK A01 T02010081  RH  047%=      5-min Rain = 0
KDR1 242230Z 30007G12KT 21/08 A2992 RMK A01 T02060084  RH  047%=      5-min Rain = 0
KDR1 242235Z 30007G12KT 20/08 A2992 RMK A01 T01980075  RH  046%=      5-min Rain = 0
KDR1 242240Z 28007KT 20/08 A2992 RMK A01 T02000077  RH  046%=      5-min Rain = 0
KDR1 242245Z 30003KT 21/07 A2992 RMK A01 T02060072  RH  043%=      5-min Rain = 0
KDR1 242250Z 29003G11KT 21/07 A2992 RMK A01 T02090073  RH  042%=      5-min Rain = 0
KDR1 242255Z 25007KT 21/08 A2992 RMK A01 T02110076  RH  043%=      5-min Rain = 0
KDR1 242300Z 27007KT 21/07 A2992 RMK A01 T02070073  RH  043%=      5-min Rain = 0
KDR1 242305Z 28006KT 21/07 A2992 RMK A01 T02070074  RH  043%=      5-min Rain = 0
KDR1 242310Z 29005G10KT 21/08 A2992 RMK A01 T02090075  RH  043%=      5-min Rain = 0
KDR1 242315Z 31006G13KT 21/07 A2992 RMK A01 T02070072  RH  043%=      5-min Rain = 0
KDR1 242320Z 31009KT 20/07 A2992 RMK A01 T01980070  RH  044%=      5-min Rain = 0
KDR1 242325Z 30008KT 19/07 A2992 RMK A01 T01920069  RH  046%=      5-min Rain = 0
KDR1 242330Z 29007KT 19/07 A2992 RMK A01 T01930068  RH  045%=      5-min Rain = 0
KDR1 242335Z 28004KT 19/07 A2992 RMK A01 T01910067  RH  045%=      5-min Rain = 0
KDR1 242340Z 29002KT 19/07 A2992 RMK A01 T01940068  RH  045%=      5-min Rain = 0
KDR1 242345Z 32003G8KT 21/07 A2992 RMK A01 T02050072  RH  043%=      5-min Rain = 0
KDR1 242350Z 29004G10KT 20/06 A2992 RMK A01 T02020064  RH  042%=      5-min Rain = 0
KDR1 242355Z 28005KT 20/07 A2992 RMK A01 T02040066  RH  042%=      5-min Rain = 0
KDR1 250000Z 28004KT 20/06 A2992 RMK A01 T02040063  RH  041%=      5-min Rain = 0
KDR1 250005Z 30006KT 20/06 A2992 RMK A01 T02020062  RH  041%=      5-min Rain = 0
KDR1 250010Z 31007KT 20/06 A2992 RMK A01 T02010060  RH  041%=      5-min Rain = 0
KDR1 250015Z 30005KT 20/05 A2992 RMK A01 T01990054  RH  040%=      5-min Rain = 0
KDR1 250020Z 30004KT 20/06 A2992 RMK A01 T01990055  RH  040%=      5-min Rain = 0
KDR1 250025Z 28003KT 20/06 A2992 RMK A01 T02000055  RH  040%=      5-min Rain = 0
KDR1 250030Z 30005KT 20/05 A2992 RMK A01 T02000054  RH  039%=      5-min Rain = 0
KDR1 250035Z 30004KT 20/06 A2992 RMK A01 T01980055  RH  040%=      5-min Rain = 0
KDR1 250040Z 26004KT 20/06 A2992 RMK A01 T01980055  RH  040%=      5-min Rain = 0
KDR1 250045Z 27003KT 20/06 A2992 RMK A01 T01980055  RH  040%=      5-min Rain = 0
KDR1 250050Z 30005KT 20/05 A2992 RMK A01 T01960054  RH  040%=      5-min Rain = 0
KDR1 250055Z 30005KT 19/05 A2992 RMK A01 T01930053  RH  041%=      5-min Rain = 0
KDR1 250100Z 29004KT 19/05 A2992 RMK A01 T01920051  RH  040%=      5-min Rain = 0
KDR1 250105Z 30004KT 19/05 A2992 RMK A01 T01910054  RH  041%=      5-min Rain = 0
KDR1 250110Z 30004KT 19/06 A2992 RMK A01 T01880055  RH  043%=      5-min Rain = 0
KDR1 250115Z 30004KT 18/06 A2992 RMK A01 T01840064  RH  046%=      5-min Rain = 0
KDR1 250120Z 31005KT 18/07 A2992 RMK A01 T01790067  RH  049%=      5-min Rain = 0
KDR1 250125Z 30005KT 17/07 A2993 RMK A01 T01720065  RH  051%=      5-min Rain = 0
KDR1 250130Z 30006KT 17/07 A2993 RMK A01 T01680068  RH  053%=      5-min Rain = 0
KDR1 250135Z 30006KT 17/07 A2993 RMK A01 T01660066  RH  053%=      5-min Rain = 0
KDR1 250140Z 29006KT 16/07 A2993 RMK A01 T01640065  RH  053%=      5-min Rain = 0
KDR1 250145Z 30007KT 16/06 A2993 RMK A01 T01640063  RH  053%=      5-min Rain = 0
KDR1 250150Z 29006KT 16/06 A2993 RMK A01 T01620063  RH  053%=      5-min Rain = 0
KDR1 250155Z 29006KT 16/07 A2993 RMK A01 T01590066  RH  055%=      5-min Rain = 0
KDR1 250200Z 29006KT 16/07 A2993 RMK A01 T01550067  RH  057%=      5-min Rain = 0
KDR1 250205Z 28006KT 15/07 A2994 RMK A01 T01530066  RH  057%=      5-min Rain = 0
KDR1 250210Z 29007KT 15/07 A2994 RMK A01 T01540065  RH  057%=      5-min Rain = 0
KDR1 250215Z 27004KT 15/07 A2993 RMK A01 T01490066  RH  059%=      5-min Rain = 0
KDR1 250220Z 27005KT 14/07 A2994 RMK A01 T01440067  RH  061%=      5-min Rain = 0
KDR1 250225Z 26005KT 14/07 A2994 RMK A01 T01410067  RH  063%=      5-min Rain = 0
KDR1 250230Z 26005KT 14/07 A2994 RMK A01 T01370069  RH  065%=      5-min Rain = 0
KDR1 250235Z 26005KT 13/07 A2994 RMK A01 T01320071  RH  069%=      5-min Rain = 0
KDR1 250240Z 26005KT 13/07 A2994 RMK A01 T01280071  RH  070%=      5-min Rain = 0
KDR1 250245Z 26006KT 13/07 A2994 RMK A01 T01270069  RH  069%=      5-min Rain = 0
KDR1 250250Z 26006KT 13/07 A2994 RMK A01 T01270067  RH  068%=      5-min Rain = 0
KDR1 250255Z 25006KT 13/07 A2994 RMK A01 T01250067  RH  070%=      5-min Rain = 0
KDR1 250300Z 26006KT 13/07 A2994 RMK A01 T01250065  RH  068%=      5-min Rain = 0
KDR1 250305Z 25006KT 13/06 A2994 RMK A01 T01260063  RH  067%=      5-min Rain = 0
KDR1 250310Z 25006KT 13/06 A2994 RMK A01 T01250063  RH  067%=      5-min Rain = 0
KDR1 250315Z 25006KT 12/06 A2994 RMK A01 T01240063  RH  068%=      5-min Rain = 0
KDR1 250320Z 25006KT 12/06 A2995 RMK A01 T01230063  RH  069%=      5-min Rain = 0
KDR1 250325Z 26007KT 12/06 A2995 RMK A01 T01230063  RH  069%=      5-min Rain = 0
KDR1 250330Z 26006KT 12/06 A2995 RMK A01 T01230063  RH  068%=      5-min Rain = 0
KDR1 250335Z 26006KT 12/06 A2995 RMK A01 T01240063  RH  068%=      5-min Rain = 0
KDR1 250340Z 26006KT 13/06 A2995 RMK A01 T01250062  RH  067%=      5-min Rain = 0
KDR1 250345Z 26005KT 12/06 A2995 RMK A01 T01220063  RH  069%=      5-min Rain = 0
KDR1 250350Z 27005KT 12/06 A2995 RMK A01 T01210063  RH  069%=      5-min Rain = 0
KDR1 250355Z 26005KT 12/06 A2995 RMK A01 T01170063  RH  071%=      5-min Rain = 0
KDR1 250400Z 26005KT 12/06 A2996 RMK A01 T01150063  RH  072%=      5-min Rain = 0
KDR1 250405Z 26005KT 11/06 A2996 RMK A01 T01130063  RH  073%=      5-min Rain = 0
KDR1 250410Z 26005KT 11/06 A2996 RMK A01 T01120063  RH  073%=      5-min Rain = 0
KDR1 250415Z 25006KT 11/06 A2996 RMK A01 T01110062  RH  074%=      5-min Rain = 0
KDR1 250420Z 25006KT 11/06 A2996 RMK A01 T01080062  RH  075%=      5-min Rain = 0
KDR1 250425Z 25006KT 11/06 A2996 RMK A01 T01090062  RH  075%=      5-min Rain = 0
KDR1 250430Z 25007KT 11/06 A2996 RMK A01 T01110062  RH  074%=      5-min Rain = 0
KDR1 250435Z 25006KT 11/06 A2995 RMK A01 T01130061  RH  072%=      5-min Rain = 0
KDR1 250440Z 24005KT 11/06 A2995 RMK A01 T01110061  RH  073%=      5-min Rain = 0
KDR1 250445Z 24004KT 11/06 A2995 RMK A01 T01110061  RH  073%=      5-min Rain = 0
KDR1 250450Z 24005KT 12/06 A2995 RMK A01 T01150059  RH  070%=      5-min Rain = 0
KDR1 250455Z 24005KT 11/06 A2995 RMK A01 T01130059  RH  071%=      5-min Rain = 0

Page generated in 0.0092 seconds.